首页
METAR-TAF:

METAR-TAF

机场 :

堪薩斯城, 密蘇里州, 美国

纬度: 39-17-50N, 经度: 094-43-50W, 海拔: 312米

当前天气观测

该预报发布于54分钟前的08:53 UTC
风速5节,风向西南
温度 -1°C
湿度 59%
气压 1029 hPa
能見度: 16.1公里
天空无云

METAR: KMCI 150853Z 22005KT 10SM CLR M01/M08 A3038 RMK AO2 SLP293 T10111078 53002

时间: 03:47 (09:47 UTC)

预报

该预报发布于4小时和22分钟前的05:25 UTC
预报有效从15日的 06点(UTC)到 16日的 06点(UTC)
风速4节,风向多变
能見度: 10公里
天空无云
从 15日的 1400点(UTC)
风速6节,风向
能見度: 10公里
散云层高于25000英尺

TAF: KMCI 150525Z 1506/1606 VRB04KT P6SM SKC FM151400 17006KT P6SM SCT250

超过4000个机场的气象观测和天气预报(METAR&TAF报告)。

可查询的气象台以黄色和红色小点在地图上表示。

将鼠标移到小点上方,可查看气象台名称。

然后点击查看天气观测和预报。

如需切换地图:点击带黑十字的绿色按钮放大地图;点击带横线的绿色按钮缩小地图;或者点击绿色箭头查看邻近地区的地图。


METAR-TAF: